Flugplatz Dahlemer Binz

Für EDKV sind keine METAR/TAF Berichte vorhanden.
Es werden die Flugwettermeldungen vom Flugplatz Buchel Airport in 45 km Entfernung angezeigt.

Bericht für ETSB

vom 20.09. um 14:20 UTC

Wind 10 kt aus 50°

Sichtweite 10 km oder mehr

Temperatur 22.0°C

Taupunkt 3.0°C

Luftfeuchtigkeit 29%

Luftdruck 1016 hPa

ETSB 201420Z AUTO 05010KT 9999 // ////// 22/03 Q1016 ///
Keine Prognose (TAF) verfügbar.
Impressum